sensor_id;sensor_type;location;lat;lon;timestamp;pressure;altitude;pressure_sealevel;temperature;humidity
71361;BME280;59166;48.908;1.870;2023-07-29T00:00:29;99699.44;;;18.78;100.00
71361;BME280;59166;48.908;1.870;2023-07-29T00:05:31;99695.53;;;18.79;100.00
71361;BME280;59166;48.908;1.870;2023-07-29T00:10:32;99680.28;;;18.78;100.00
71361;BME280;59166;48.908;1.870;2023-07-29T00:15:33;99675.13;;;18.76;100.00
71361;BME280;59166;48.908;1.870;2023-07-29T00:20:36;99679.13;;;18.79;100.00
71361;BME280;59166;48.908;1.870;2023-07-29T00:25:37;99672.06;;;18.78;100.00
71361;BME280;59166;48.908;1.870;2023-07-29T00:30:37;99686.53;;;18.78;100.00
71361;BME280;59166;48.908;1.870;2023-07-29T00:35:40;99666.00;;;18.64;100.00
71361;BME280;59166;48.908;1.870;2023-07-29T00:40:40;99670.06;;;18.58;100.00
71361;BME280;59166;48.908;1.870;2023-07-29T00:45:43;99694.69;;;18.58;100.00
71361;BME280;59166;48.908;1.870;2023-07-29T00:50:46;99692.78;;;18.50;100.00
71361;BME280;59166;48.908;1.870;2023-07-29T00:55:47;99691.16;;;18.48;100.00
71361;BME280;59166;48.908;1.870;2023-07-29T01:00:48;99680.59;;;18.38;100.00
71361;BME280;59166;48.908;1.870;2023-07-29T01:06:01;99676.88;;;18.34;100.00
71361;BME280;59166;48.908;1.870;2023-07-29T01:11:16;99692.38;;;18.30;100.00
71361;BME280;59166;48.908;1.870;2023-07-29T01:16:25;99683.56;;;18.16;100.00
71361;BME280;59166;48.908;1.870;2023-07-29T01:21:33;99678.25;;;18.20;100.00
71361;BME280;59166;48.908;1.870;2023-07-29T01:26:37;99680.97;;;18.20;100.00
71361;BME280;59166;48.908;1.870;2023-07-29T01:31:43;99680.28;;;18.14;100.00
71361;BME280;59166;48.908;1.870;2023-07-29T01:36:46;99673.44;;;18.17;100.00
71361;BME280;59166;48.908;1.870;2023-07-29T01:41:52;99665.53;;;18.07;100.00
71361;BME280;59166;48.908;1.870;2023-07-29T01:46:55;99672.94;;;18.06;100.00
71361;BME280;59166;48.908;1.870;2023-07-29T01:51:56;99675.03;;;18.01;100.00
71361;BME280;59166;48.908;1.870;2023-07-29T01:56:58;99686.13;;;17.95;100.00
71361;BME280;59166;48.908;1.870;2023-07-29T02:01:59;99652.88;;;17.93;100.00
71361;BME280;59166;48.908;1.870;2023-07-29T02:07:00;99678.44;;;17.89;100.00
71361;BME280;59166;48.908;1.870;2023-07-29T02:12:03;99689.03;;;17.82;100.00
71361;BME280;59166;48.908;1.870;2023-07-29T02:17:04;99677.16;;;17.78;100.00
71361;BME280;59166;48.908;1.870;2023-07-29T02:22:05;99665.59;;;17.72;100.00
71361;BME280;59166;48.908;1.870;2023-07-29T02:27:07;99677.97;;;17.61;100.00
71361;BME280;59166;48.908;1.870;2023-07-29T02:32:08;99659.00;;;17.65;100.00
71361;BME280;59166;48.908;1.870;2023-07-29T02:37:09;99683.59;;;17.56;100.00
71361;BME280;59166;48.908;1.870;2023-07-29T02:42:11;99678.28;;;17.51;100.00
71361;BME280;59166;48.908;1.870;2023-07-29T02:47:12;99691.78;;;17.48;100.00
71361;BME280;59166;48.908;1.870;2023-07-29T02:52:13;99688.88;;;17.44;100.00
71361;BME280;59166;48.908;1.870;2023-07-29T02:57:15;99689.88;;;17.39;100.00
71361;BME280;59166;48.908;1.870;2023-07-29T03:02:16;99696.56;;;17.33;100.00
71361;BME280;59166;48.908;1.870;2023-07-29T03:07:17;99700.59;;;17.27;100.00
71361;BME280;59166;48.908;1.870;2023-07-29T03:12:19;99709.59;;;17.19;100.00
71361;BME280;59166;48.908;1.870;2023-07-29T03:17:20;99715.44;;;17.13;100.00
71361;BME280;59166;48.908;1.870;2023-07-29T03:22:20;99704.72;;;17.16;100.00
71361;BME280;59166;48.908;1.870;2023-07-29T03:27:23;99712.72;;;17.04;100.00
71361;BME280;59166;48.908;1.870;2023-07-29T03:32:24;99702.09;;;17.03;100.00
71361;BME280;59166;48.908;1.870;2023-07-29T03:37:25;99706.97;;;17.06;100.00
71361;BME280;59166;48.908;1.870;2023-07-29T03:42:27;99709.50;;;17.02;100.00
71361;BME280;59166;48.908;1.870;2023-07-29T03:47:28;99712.38;;;16.97;100.00
71361;BME280;59166;48.908;1.870;2023-07-29T03:52:29;99711.22;;;16.89;100.00
71361;BME280;59166;48.908;1.870;2023-07-29T03:57:31;99711.03;;;16.86;100.00
71361;BME280;59166;48.908;1.870;2023-07-29T04:02:32;99702.38;;;16.84;100.00
71361;BME280;59166;48.908;1.870;2023-07-29T04:07:33;99716.16;;;16.79;100.00
71361;BME280;59166;48.908;1.870;2023-07-29T04:12:36;99716.16;;;16.79;100.00
71361;BME280;59166;48.908;1.870;2023-07-29T04:17:37;99722.25;;;16.76;100.00
71361;BME280;59166;48.908;1.870;2023-07-29T04:22:38;99733.16;;;16.76;100.00
71361;BME280;59166;48.908;1.870;2023-07-29T04:27:40;99726.75;;;16.72;100.00
71361;BME280;59166;48.908;1.870;2023-07-29T04:32:41;99733.44;;;16.66;100.00
71361;BME280;59166;48.908;1.870;2023-07-29T04:37:42;99729.59;;;16.67;100.00
71361;BME280;59166;48.908;1.870;2023-07-29T04:42:45;99727.50;;;16.64;100.00
71361;BME280;59166;48.908;1.870;2023-07-29T04:47:45;99721.88;;;16.69;100.00
71361;BME280;59166;48.908;1.870;2023-07-29T04:52:46;99740.50;;;16.67;100.00
71361;BME280;59166;48.908;1.870;2023-07-29T04:57:49;99739.06;;;16.69;100.00
71361;BME280;59166;48.908;1.870;2023-07-29T05:02:50;99740.31;;;16.63;100.00
71361;BME280;59166;48.908;1.870;2023-07-29T05:07:50;99746.59;;;16.64;100.00
71361;BME280;59166;48.908;1.870;2023-07-29T05:12:53;99754.41;;;16.57;100.00
71361;BME280;59166;48.908;1.870;2023-07-29T05:17:54;99747.34;;;16.56;100.00
71361;BME280;59166;48.908;1.870;2023-07-29T05:22:54;99748.16;;;16.56;100.00
71361;BME280;59166;48.908;1.870;2023-07-29T05:27:57;99745.59;;;16.60;100.00
71361;BME280;59166;48.908;1.870;2023-07-29T05:32:58;99745.97;;;16.67;100.00
71361;BME280;59166;48.908;1.870;2023-07-29T05:37:58;99743.75;;;16.77;100.00
71361;BME280;59166;48.908;1.870;2023-07-29T05:43:01;99742.19;;;16.85;100.00
71361;BME280;59166;48.908;1.870;2023-07-29T05:48:02;99743.50;;;16.96;100.00
71361;BME280;59166;48.908;1.870;2023-07-29T05:53:02;99742.25;;;17.02;100.00
71361;BME280;59166;48.908;1.870;2023-07-29T05:58:05;99738.91;;;17.14;100.00
71361;BME280;59166;48.908;1.870;2023-07-29T06:03:06;99760.47;;;17.15;100.00
71361;BME280;59166;48.908;1.870;2023-07-29T06:08:07;99764.78;;;17.16;100.00
71361;BME280;59166;48.908;1.870;2023-07-29T06:13:09;99757.38;;;17.08;100.00
71361;BME280;59166;48.908;1.870;2023-07-29T06:18:10;99771.19;;;17.12;100.00
71361;BME280;59166;48.908;1.870;2023-07-29T06:23:11;99780.88;;;17.26;100.00
71361;BME280;59166;48.908;1.870;2023-07-29T06:28:13;99776.25;;;17.44;100.00
71361;BME280;59166;48.908;1.870;2023-07-29T06:33:14;99773.88;;;17.51;100.00
71361;BME280;59166;48.908;1.870;2023-07-29T06:38:15;99785.94;;;17.59;100.00
71361;BME280;59166;48.908;1.870;2023-07-29T06:43:17;99777.44;;;17.69;100.00
71361;BME280;59166;48.908;1.870;2023-07-29T06:48:18;99779.22;;;17.73;100.00
71361;BME280;59166;48.908;1.870;2023-07-29T06:53:19;99790.63;;;17.84;100.00
71361;BME280;59166;48.908;1.870;2023-07-29T06:58:21;99793.53;;;17.96;100.00
71361;BME280;59166;48.908;1.870;2023-07-29T07:03:22;99799.31;;;17.94;100.00
71361;BME280;59166;48.908;1.870;2023-07-29T07:08:23;99791.25;;;17.98;100.00
71361;BME280;59166;48.908;1.870;2023-07-29T07:13:25;99789.00;;;18.09;100.00
71361;BME280;59166;48.908;1.870;2023-07-29T07:18:27;99794.34;;;18.31;100.00
71361;BME280;59166;48.908;1.870;2023-07-29T07:23:28;99788.78;;;18.65;100.00
71361;BME280;59166;48.908;1.870;2023-07-29T07:28:30;99802.25;;;18.87;100.00
71361;BME280;59166;48.908;1.870;2023-07-29T07:33:31;99805.50;;;18.81;100.00
71361;BME280;59166;48.908;1.870;2023-07-29T07:38:32;99807.78;;;18.70;100.00
71361;BME280;59166;48.908;1.870;2023-07-29T07:43:34;99801.81;;;18.77;100.00
71361;BME280;59166;48.908;1.870;2023-07-29T07:48:35;99797.94;;;18.78;100.00
71361;BME280;59166;48.908;1.870;2023-07-29T07:53:36;99800.50;;;18.83;100.00
71361;BME280;59166;48.908;1.870;2023-07-29T07:58:38;99806.09;;;18.95;100.00
71361;BME280;59166;48.908;1.870;2023-07-29T08:03:39;99808.91;;;19.24;100.00
71361;BME280;59166;48.908;1.870;2023-07-29T08:08:40;99797.00;;;19.49;100.00
71361;BME280;59166;48.908;1.870;2023-07-29T08:13:42;99807.44;;;19.77;100.00
71361;BME280;59166;48.908;1.870;2023-07-29T08:18:43;99793.97;;;19.92;98.19
71361;BME280;59166;48.908;1.870;2023-07-29T08:23:44;99792.28;;;20.21;100.00
71361;BME280;59166;48.908;1.870;2023-07-29T08:28:46;99793.50;;;20.32;98.04
71361;BME280;59166;48.908;1.870;2023-07-29T08:33:47;99797.59;;;20.26;97.14
71361;BME280;59166;48.908;1.870;2023-07-29T08:38:48;99797.66;;;20.17;97.59
71361;BME280;59166;48.908;1.870;2023-07-29T08:43:52;99795.81;;;20.09;96.90
71361;BME280;59166;48.908;1.870;2023-07-29T08:48:55;99792.91;;;20.71;96.65
71361;BME280;59166;48.908;1.870;2023-07-29T08:53:56;99784.44;;;21.21;91.96
71361;BME280;59166;48.908;1.870;2023-07-29T08:59:00;99793.59;;;21.01;92.18
71361;BME280;59166;48.908;1.870;2023-07-29T09:04:02;99785.16;;;20.85;93.71
71361;BME280;59166;48.908;1.870;2023-07-29T09:09:03;99782.75;;;20.72;91.43
71361;BME280;59166;48.908;1.870;2023-07-29T09:14:05;99774.34;;;20.89;89.35
71361;BME280;59166;48.908;1.870;2023-07-29T09:19:06;99780.44;;;20.94;89.36
71361;BME280;59166;48.908;1.870;2023-07-29T09:24:08;99781.81;;;20.68;90.04
71361;BME280;59166;48.908;1.870;2023-07-29T09:29:10;99786.56;;;20.46;92.63
71361;BME280;59166;48.908;1.870;2023-07-29T09:34:15;99787.25;;;20.43;93.50
71361;BME280;59166;48.908;1.870;2023-07-29T09:39:16;99798.47;;;20.51;95.64
71361;BME280;59166;48.908;1.870;2023-07-29T09:44:18;99790.03;;;20.68;92.26
71361;BME280;59166;48.908;1.870;2023-07-29T09:49:19;99788.75;;;20.98;90.54
71361;BME280;59166;48.908;1.870;2023-07-29T09:54:20;99785.47;;;21.17;89.04
71361;BME280;59166;48.908;1.870;2023-07-29T09:59:23;99790.28;;;21.20;91.16
71361;BME280;59166;48.908;1.870;2023-07-29T10:04:25;99788.09;;;21.13;88.77
71361;BME280;59166;48.908;1.870;2023-07-29T10:09:26;99786.94;;;21.02;91.36
71361;BME280;59166;48.908;1.870;2023-07-29T10:14:31;99780.66;;;21.14;89.20
71361;BME280;59166;48.908;1.870;2023-07-29T10:19:32;99783.03;;;21.39;88.02
71361;BME280;59166;48.908;1.870;2023-07-29T10:24:35;99789.91;;;21.58;88.04
71361;BME280;59166;48.908;1.870;2023-07-29T10:29:39;99786.03;;;21.71;89.06
71361;BME280;59166;48.908;1.870;2023-07-29T10:34:44;99783.81;;;21.52;88.38
71361;BME280;59166;48.908;1.870;2023-07-29T10:39:52;99769.78;;;21.41;90.07
71361;BME280;59166;48.908;1.870;2023-07-29T10:44:55;99775.03;;;21.46;91.88
71361;BME280;59166;48.908;1.870;2023-07-29T10:49:57;99773.31;;;21.54;89.45
71361;BME280;59166;48.908;1.870;2023-07-29T10:54:59;99777.63;;;21.67;91.60
71361;BME280;59166;48.908;1.870;2023-07-29T11:00:03;99779.56;;;21.67;90.96
71361;BME280;59166;48.908;1.870;2023-07-29T11:05:06;99780.63;;;21.50;96.51
71361;BME280;59166;48.908;1.870;2023-07-29T11:10:07;99780.09;;;21.20;100.00
71361;BME280;59166;48.908;1.870;2023-07-29T11:15:23;99779.84;;;21.25;100.00
71361;BME280;59166;48.908;1.870;2023-07-29T11:20:26;99777.78;;;21.34;100.00
71361;BME280;59166;48.908;1.870;2023-07-29T11:25:29;99771.13;;;21.72;99.27
71361;BME280;59166;48.908;1.870;2023-07-29T11:30:32;99769.69;;;21.90;94.71
71361;BME280;59166;48.908;1.870;2023-07-29T11:35:33;99758.56;;;22.26;93.19
71361;BME280;59166;48.908;1.870;2023-07-29T11:40:34;99745.06;;;22.65;87.20
71361;BME280;59166;48.908;1.870;2023-07-29T11:45:36;99746.41;;;23.02;83.52
71361;BME280;59166;48.908;1.870;2023-07-29T11:50:36;99740.66;;;23.96;79.49
71361;BME280;59166;48.908;1.870;2023-07-29T11:55:37;99731.78;;;24.22;75.82
71361;BME280;59166;48.908;1.870;2023-07-29T12:00:39;99733.69;;;23.83;78.12
71361;BME280;59166;48.908;1.870;2023-07-29T12:05:40;99728.22;;;24.02;76.26
71361;BME280;59166;48.908;1.870;2023-07-29T12:10:41;99728.84;;;24.76;74.83
71361;BME280;59166;48.908;1.870;2023-07-29T12:15:43;99728.47;;;25.26;73.64
71361;BME280;59166;48.908;1.870;2023-07-29T12:20:44;99720.03;;;24.70;71.07
71361;BME280;59166;48.908;1.870;2023-07-29T12:25:44;99723.50;;;25.65;68.84
71361;BME280;59166;48.908;1.870;2023-07-29T12:30:46;99709.19;;;25.89;69.69
71361;BME280;59166;48.908;1.870;2023-07-29T12:35:47;99714.41;;;25.38;70.96
71361;BME280;59166;48.908;1.870;2023-07-29T12:40:50;99712.66;;;24.55;70.94
71361;BME280;59166;48.908;1.870;2023-07-29T12:45:52;99710.31;;;23.96;72.77
71361;BME280;59166;48.908;1.870;2023-07-29T12:50:53;99716.25;;;23.40;79.34
71361;BME280;59166;48.908;1.870;2023-07-29T12:55:53;99720.88;;;23.21;88.64
71361;BME280;59166;48.908;1.870;2023-07-29T13:00:56;99708.59;;;24.07;90.85
71361;BME280;59166;48.908;1.870;2023-07-29T13:05:57;99701.38;;;24.64;85.37
71361;BME280;59166;48.908;1.870;2023-07-29T13:10:57;99689.50;;;24.40;78.88
71361;BME280;59166;48.908;1.870;2023-07-29T13:15:59;99689.22;;;24.68;81.10
71361;BME280;59166;48.908;1.870;2023-07-29T13:21:00;99687.53;;;25.09;67.59
71361;BME280;59166;48.908;1.870;2023-07-29T13:26:01;99685.94;;;25.08;72.00
71361;BME280;59166;48.908;1.870;2023-07-29T13:31:03;99689.56;;;24.67;72.25
71361;BME280;59166;48.908;1.870;2023-07-29T13:36:04;99686.03;;;25.15;67.68
71361;BME280;59166;48.908;1.870;2023-07-29T13:41:04;99678.72;;;25.86;64.04
71361;BME280;59166;48.908;1.870;2023-07-29T13:46:06;99676.56;;;26.42;62.72
71361;BME280;59166;48.908;1.870;2023-07-29T13:51:07;99678.97;;;26.84;62.52
71361;BME280;59166;48.908;1.870;2023-07-29T13:56:08;99680.28;;;27.01;58.45
71361;BME280;59166;48.908;1.870;2023-07-29T14:01:10;99676.53;;;26.39;59.80
71361;BME280;59166;48.908;1.870;2023-07-29T14:06:10;99678.47;;;25.98;61.85
71361;BME280;59166;48.908;1.870;2023-07-29T14:11:11;99677.03;;;26.92;61.81
71361;BME280;59166;48.908;1.870;2023-07-29T14:16:13;99690.22;;;27.06;57.50
71361;BME280;59166;48.908;1.870;2023-07-29T14:21:13;99683.38;;;26.92;59.80
71361;BME280;59166;48.908;1.870;2023-07-29T14:26:14;99685.97;;;26.31;59.77
71361;BME280;59166;48.908;1.870;2023-07-29T14:31:16;99696.00;;;26.90;56.58
71361;BME280;59166;48.908;1.870;2023-07-29T14:36:17;99696.19;;;26.67;56.08
71361;BME280;59166;48.908;1.870;2023-07-29T14:41:17;99695.69;;;26.55;58.63
71361;BME280;59166;48.908;1.870;2023-07-29T14:46:20;99696.47;;;25.85;69.04
71361;BME280;59166;48.908;1.870;2023-07-29T14:51:21;99731.22;;;24.77;73.92
71361;BME280;59166;48.908;1.870;2023-07-29T14:56:21;99737.59;;;23.43;94.72
71361;BME280;59166;48.908;1.870;2023-07-29T15:01:23;99725.97;;;22.72;98.95
71361;BME280;59166;48.908;1.870;2023-07-29T15:06:24;99716.00;;;23.14;97.69
71361;BME280;59166;48.908;1.870;2023-07-29T15:11:24;99716.09;;;23.33;100.00
71361;BME280;59166;48.908;1.870;2023-07-29T15:16:26;99707.44;;;23.35;100.00
71361;BME280;59166;48.908;1.870;2023-07-29T15:21:27;99699.56;;;23.52;100.00
71361;BME280;59166;48.908;1.870;2023-07-29T15:26:28;99691.53;;;23.82;100.00
71361;BME280;59166;48.908;1.870;2023-07-29T15:31:30;99697.88;;;24.02;100.00
71361;BME280;59166;48.908;1.870;2023-07-29T15:36:30;99699.66;;;23.94;100.00
71361;BME280;59166;48.908;1.870;2023-07-29T15:41:32;99713.94;;;23.62;100.00
71361;BME280;59166;48.908;1.870;2023-07-29T15:46:34;99716.34;;;23.28;100.00
71361;BME280;59166;48.908;1.870;2023-07-29T15:51:34;99717.75;;;23.38;100.00
71361;BME280;59166;48.908;1.870;2023-07-29T15:56:35;99711.25;;;23.46;100.00
71361;BME280;59166;48.908;1.870;2023-07-29T16:01:37;99704.66;;;23.50;100.00
71361;BME280;59166;48.908;1.870;2023-07-29T16:06:38;99705.41;;;23.16;100.00
71361;BME280;59166;48.908;1.870;2023-07-29T16:11:38;99706.69;;;23.03;100.00
71361;BME280;59166;48.908;1.870;2023-07-29T16:16:40;99711.91;;;23.08;100.00
71361;BME280;59166;48.908;1.870;2023-07-29T16:21:41;99699.22;;;22.88;98.49
71361;BME280;59166;48.908;1.870;2023-07-29T16:26:42;99705.44;;;22.85;93.69
71361;BME280;59166;48.908;1.870;2023-07-29T16:31:44;99715.13;;;22.79;100.00
71361;BME280;59166;48.908;1.870;2023-07-29T16:36:45;99713.34;;;22.71;100.00
71361;BME280;59166;48.908;1.870;2023-07-29T16:41:45;99717.28;;;22.70;97.40
71361;BME280;59166;48.908;1.870;2023-07-29T16:46:47;99717.44;;;22.92;100.00
71361;BME280;59166;48.908;1.870;2023-07-29T16:51:49;99719.38;;;22.61;100.00
71361;BME280;59166;48.908;1.870;2023-07-29T16:56:49;99720.22;;;22.33;100.00
71361;BME280;59166;48.908;1.870;2023-07-29T17:01:52;99723.75;;;22.18;100.00
71361;BME280;59166;48.908;1.870;2023-07-29T17:06:52;99718.16;;;22.15;100.00
71361;BME280;59166;48.908;1.870;2023-07-29T17:11:53;99715.69;;;21.97;100.00
71361;BME280;59166;48.908;1.870;2023-07-29T17:16:55;99716.13;;;21.99;100.00
71361;BME280;59166;48.908;1.870;2023-07-29T17:21:55;99731.75;;;21.95;100.00
71361;BME280;59166;48.908;1.870;2023-07-29T17:26:56;99731.91;;;21.87;100.00
71361;BME280;59166;48.908;1.870;2023-07-29T17:31:58;99726.88;;;21.77;100.00
71361;BME280;59166;48.908;1.870;2023-07-29T17:36:59;99724.84;;;21.74;100.00
71361;BME280;59166;48.908;1.870;2023-07-29T17:42:00;99733.78;;;21.59;100.00
71361;BME280;59166;48.908;1.870;2023-07-29T17:47:02;99728.75;;;21.61;100.00
71361;BME280;59166;48.908;1.870;2023-07-29T17:52:03;99740.31;;;21.54;100.00
71361;BME280;59166;48.908;1.870;2023-07-29T17:57:05;99736.66;;;21.50;100.00
71361;BME280;59166;48.908;1.870;2023-07-29T18:02:07;99744.00;;;21.46;100.00
71361;BME280;59166;48.908;1.870;2023-07-29T18:07:08;99744.03;;;21.34;99.28
71361;BME280;59166;48.908;1.870;2023-07-29T18:12:08;99761.41;;;21.26;97.83
71361;BME280;59166;48.908;1.870;2023-07-29T18:17:10;99763.47;;;21.29;97.86
71361;BME280;59166;48.908;1.870;2023-07-29T18:22:11;99763.81;;;21.15;94.62
71361;BME280;59166;48.908;1.870;2023-07-29T18:27:12;99777.56;;;21.03;95.97
71361;BME280;59166;48.908;1.870;2023-07-29T18:32:14;99778.13;;;20.96;91.75
71361;BME280;59166;48.908;1.870;2023-07-29T18:37:14;99787.16;;;20.97;92.02
71361;BME280;59166;48.908;1.870;2023-07-29T18:42:15;99779.16;;;20.92;94.51
71361;BME280;59166;48.908;1.870;2023-07-29T18:47:17;99789.00;;;20.93;97.97
71361;BME280;59166;48.908;1.870;2023-07-29T18:52:18;99788.41;;;20.87;100.00
71361;BME280;59166;48.908;1.870;2023-07-29T18:57:19;99790.53;;;20.82;100.00
71361;BME280;59166;48.908;1.870;2023-07-29T19:02:21;99787.53;;;20.75;100.00
71361;BME280;59166;48.908;1.870;2023-07-29T19:07:21;99800.56;;;20.66;100.00
71361;BME280;59166;48.908;1.870;2023-07-29T19:12:22;99806.50;;;20.56;100.00
71361;BME280;59166;48.908;1.870;2023-07-29T19:17:24;99815.16;;;20.45;100.00
71361;BME280;59166;48.908;1.870;2023-07-29T19:22:25;99816.50;;;20.39;100.00
71361;BME280;59166;48.908;1.870;2023-07-29T19:27:25;99816.69;;;20.34;100.00
71361;BME280;59166;48.908;1.870;2023-07-29T19:32:27;99815.53;;;20.23;100.00
71361;BME280;59166;48.908;1.870;2023-07-29T19:37:28;99823.75;;;20.23;99.56
71361;BME280;59166;48.908;1.870;2023-07-29T19:42:29;99831.03;;;20.19;96.70
71361;BME280;59166;48.908;1.870;2023-07-29T19:47:31;99833.44;;;20.21;98.83
71361;BME280;59166;48.908;1.870;2023-07-29T19:52:31;99842.47;;;20.21;97.90
71361;BME280;59166;48.908;1.870;2023-07-29T19:57:32;99851.59;;;20.13;93.22
71361;BME280;59166;48.908;1.870;2023-07-29T20:02:34;99858.38;;;20.07;94.50
71361;BME280;59166;48.908;1.870;2023-07-29T20:07:34;99861.66;;;20.01;96.42
71361;BME280;59166;48.908;1.870;2023-07-29T20:12:35;99865.78;;;19.86;100.00
71361;BME280;59166;48.908;1.870;2023-07-29T20:17:37;99870.31;;;19.82;100.00
71361;BME280;59166;48.908;1.870;2023-07-29T20:22:38;99871.97;;;19.74;100.00
71361;BME280;59166;48.908;1.870;2023-07-29T20:27:38;99871.06;;;19.62;100.00
71361;BME280;59166;48.908;1.870;2023-07-29T20:32:41;99891.25;;;19.57;100.00
71361;BME280;59166;48.908;1.870;2023-07-29T20:37:41;99888.84;;;19.56;100.00
71361;BME280;59166;48.908;1.870;2023-07-29T20:42:42;99893.53;;;19.55;100.00
71361;BME280;59166;48.908;1.870;2023-07-29T20:47:44;99905.59;;;19.54;100.00
71361;BME280;59166;48.908;1.870;2023-07-29T20:52:44;99919.81;;;19.47;100.00
71361;BME280;59166;48.908;1.870;2023-07-29T20:57:45;99933.38;;;19.44;100.00
71361;BME280;59166;48.908;1.870;2023-07-29T21:02:47;99943.34;;;19.40;100.00
71361;BME280;59166;48.908;1.870;2023-07-29T21:07:48;99953.50;;;19.39;100.00
71361;BME280;59166;48.908;1.870;2023-07-29T21:12:49;99963.38;;;19.32;97.70
71361;BME280;59166;48.908;1.870;2023-07-29T21:17:51;99970.47;;;19.24;98.65
71361;BME280;59166;48.908;1.870;2023-07-29T21:22:51;99970.31;;;19.12;100.00
71361;BME280;59166;48.908;1.870;2023-07-29T21:27:52;99971.28;;;18.99;100.00
71361;BME280;59166;48.908;1.870;2023-07-29T21:32:54;99990.63;;;18.94;100.00
71361;BME280;59166;48.908;1.870;2023-07-29T21:37:55;99993.22;;;18.90;100.00
71361;BME280;59166;48.908;1.870;2023-07-29T21:42:55;100003.19;;;18.78;98.87
71361;BME280;59166;48.908;1.870;2023-07-29T21:47:57;100009.13;;;18.63;98.03
71361;BME280;59166;48.908;1.870;2023-07-29T21:52:58;100010.56;;;18.52;100.00
71361;BME280;59166;48.908;1.870;2023-07-29T21:57:58;100014.56;;;18.45;100.00
71361;BME280;59166;48.908;1.870;2023-07-29T22:03:00;100019.06;;;18.41;100.00
71361;BME280;59166;48.908;1.870;2023-07-29T22:08:01;100020.34;;;18.27;100.00
71361;BME280;59166;48.908;1.870;2023-07-29T22:13:02;100028.13;;;18.11;99.47
71361;BME280;59166;48.908;1.870;2023-07-29T22:18:04;100031.16;;;18.01;100.00
71361;BME280;59166;48.908;1.870;2023-07-29T22:23:05;100038.50;;;17.92;100.00
71361;BME280;59166;48.908;1.870;2023-07-29T22:28:05;100045.25;;;17.86;100.00
71361;BME280;59166;48.908;1.870;2023-07-29T22:33:07;100055.19;;;17.82;100.00
71361;BME280;59166;48.908;1.870;2023-07-29T22:38:08;100052.09;;;17.75;100.00
71361;BME280;59166;48.908;1.870;2023-07-29T22:43:08;100061.22;;;17.70;100.00
71361;BME280;59166;48.908;1.870;2023-07-29T22:48:10;100055.72;;;17.62;100.00
71361;BME280;59166;48.908;1.870;2023-07-29T22:53:12;100061.81;;;17.59;100.00
71361;BME280;59166;48.908;1.870;2023-07-29T22:58:13;100065.19;;;17.56;100.00
71361;BME280;59166;48.908;1.870;2023-07-29T23:03:15;100078.75;;;17.47;100.00
71361;BME280;59166;48.908;1.870;2023-07-29T23:08:16;100073.13;;;17.43;100.00
71361;BME280;59166;48.908;1.870;2023-07-29T23:13:17;100068.03;;;17.28;100.00
71361;BME280;59166;48.908;1.870;2023-07-29T23:18:19;100069.72;;;17.16;100.00
71361;BME280;59166;48.908;1.870;2023-07-29T23:23:20;100074.16;;;17.12;100.00
71361;BME280;59166;48.908;1.870;2023-07-29T23:28:21;100080.03;;;17.05;100.00
71361;BME280;59166;48.908;1.870;2023-07-29T23:33:23;100081.63;;;17.06;100.00
71361;BME280;59166;48.908;1.870;2023-07-29T23:38:23;100079.31;;;17.00;100.00
71361;BME280;59166;48.908;1.870;2023-07-29T23:43:24;100077.72;;;16.99;100.00
71361;BME280;59166;48.908;1.870;2023-07-29T23:48:26;100086.16;;;16.88;100.00
71361;BME280;59166;48.908;1.870;2023-07-29T23:53:27;100075.13;;;16.80;100.00
71361;BME280;59166;48.908;1.870;2023-07-29T23:58:27;100077.66;;;16.76;100.00
